Flight Track Log - Related Links

Times and Time Zones

All times are in EST time to prevent confusion due to time zone crossing. See the UPS1337 flight status page for this flight to view local times or setup timezone preferences in your user account.

Time Position Orientation Groundspeed Altitude Reporting Facility
EST Latitude Longitude Course Direction KTS MPH feet Rate Location/Type
Fri 09:45:53 PM 27.9167 -82.6833 319° Northwest 156 180 800  Level Tampa TRACON
Fri 09:46:17 PM 27.9333 -82.7000 319° Northwest 150 173 2,200 2,667 Climbing Tampa TRACON
Fri 09:47:23 PM 28.0000 -82.6667 24° Northeast 290 334 4,800 2,813 Climbing Tampa TRACON
Fri 09:53:13 PM 28.5599 -82.6011 North 425 489 21,700 2,845 Climbing FlightAware ADS-B
Fri 09:53:49 PM 28.6301 -82.5990 North 436 502 23,100 2,113 Climbing FlightAware ADS-B
Fri 09:56:46 PM 29.0076 -82.5902 North 458 527 29,200 1,635 Climbing FlightAware ADS-B
Fri 10:00:29 PM 29.4665 -82.5791 North 430 495 34,000 1,114 Climbing FlightAware ADS-B
Fri 10:01:10 PM 29.5476 -82.5774 North 426 490 34,100 519 Climbing FlightAware ADS-B
Fri 10:01:50 PM 29.6236 -82.5756 North 423 487 34,700 771 Climbing FlightAware ADS-B
Fri 10:02:20 PM 29.6828 -82.5741 North 425 489 35,000 261 Climbing FlightAware ADS-B
Fri 10:02:59 PM 29.7587 -82.5721 North 424 488 35,000  Level FlightAware ADS-B
Fri 10:03:39 PM 29.8312 -82.5705 North 424 488 35,000  Level FlightAware ADS-B
Fri 10:04:10 PM 29.8988 -82.5688 North 425 489 35,000  Level FlightAware ADS-B
Fri 10:04:40 PM 29.9530 -82.5672 North 424 488 35,000  Level FlightAware ADS-B
Fri 10:05:11 PM 30.0201 -82.5658 North 424 488 35,000  Level FlightAware ADS-B
Fri 10:05:41 PM 30.0738 -82.5645 North 424 488 35,000  Level FlightAware ADS-B
Fri 10:06:20 PM 30.1549 -82.5624 North 423 487 35,000  Level FlightAware ADS-B
Fri 10:06:51 PM 30.2142 -82.5606 North 424 488 35,000  Level FlightAware ADS-B
Fri 10:07:21 PM 30.2674 -82.5591 North 424 488 35,000  Level FlightAware ADS-B
Fri 10:08:00 PM 30.3528 -82.5571 North 422 486 35,000  Level FlightAware ADS-B
Fri 10:08:31 PM 30.4116 -82.5558 North 421 484 35,000  Level FlightAware ADS-B
Fri 10:09:11 PM 30.4915 -82.5483 North 437 503 35,000  Level FlightAware ADS-B
Fri 10:10:12 PM 30.6053 -82.5106 21° North 461 531 35,000  Level FlightAware ADS-B
Fri 10:10:51 PM 30.6906 -82.4735 20° North 459 528 35,000  Level FlightAware ADS-B
Fri 10:11:30 PM 30.7699 -82.4394 21° North 460 529 35,000 -54 Level FlightAware ADS-B
Fri 10:12:43 PM 30.9044 -82.3842 21° North 446 513 34,900 -45 Descending Jacksonville Center
Fri 10:13:43 PM 31.0253 -82.3278 22° Northeast 446 513 34,900 50 Level Jacksonville Center
Fri 10:14:43 PM 31.1419 -82.2808 19° North 451 519 35,000 50 Climbing Jacksonville Center
Fri 10:15:43 PM 31.2503 -82.2317 21° North 451 519 35,000 -50 Level Jacksonville Center
Fri 10:16:43 PM 31.3692 -82.1822 20° North 451 519 34,900  Descending Jacksonville Center
Fri 10:17:43 PM 31.4856 -82.1300 21° North 451 519 35,000 50 Climbing Jacksonville Center
Fri 10:18:43 PM 31.6044 -82.0753 21° North 451 519 35,000  Level Jacksonville Center
Fri 10:19:43 PM 31.7231 -82.0231 21° North 451 519 35,000  Level Jacksonville Center
Fri 10:20:43 PM 31.8500 -81.9706 19° North 451 519 35,000  Level Jacksonville Center
Fri 10:21:43 PM 31.9644 -81.9156 22° Northeast 451 519 35,000  Level Jacksonville Center
Fri 10:22:43 PM 32.0706 -81.8728 19° North 444 511 35,000  Level Jacksonville Center
Fri 10:23:43 PM 32.1953 -81.8147 21° North 444 511 35,000  Level Jacksonville Center
Fri 10:24:43 PM 32.3014 -81.7694 20° North 444 511 35,000  Level Jacksonville Center
Fri 10:25:43 PM 32.4283 -81.7111 21° North 444 511 35,000  Level Jacksonville Center
Fri 10:26:43 PM 32.5383 -81.6606 21° North 438 504 35,000  Level Jacksonville Center
Fri 10:27:43 PM 32.6403 -81.6047 25° Northeast 438 504 35,000 -50 Level Jacksonville Center
Fri 10:28:43 PM 32.7500 -81.5267 31° Northeast 451 519 34,900 -50 Descending Jacksonville Center
Fri 10:29:43 PM 32.8639 -81.4483 30° Northeast 459 528 34,900 -762 Level Jacksonville Center
Fri 10:36:51 PM 33.6327 -80.8995 31° Northeast 434 499 28,700 -825 Descending FlightAware ADS-B (EFHN)
Fri 10:37:36 PM 33.7095 -80.8444 31° Northeast 433 498 28,400 -527 Descending FlightAware ADS-B (EFHN)
Fri 10:38:22 PM 33.7889 -80.7875 31° Northeast 435 501 27,900 -553 Descending FlightAware ADS-B (EFHN)
Fri 10:38:52 PM 33.8402 -80.7505 31° Northeast 438 504 27,700 -474 Descending FlightAware ADS-B (EFHN)
Fri 10:39:38 PM 33.9192 -80.6933 31° Northeast 439 505 27,300 -545 Descending FlightAware ADS-B (EFHN)
Fri 10:40:20 PM 33.9947 -80.6390 31° Northeast 438 504 26,900 -500 Descending FlightAware ADS-B (EFHN)
Fri 10:40:50 PM 34.0471 -80.6011 31° Northeast 437 503 26,700 -484 Descending FlightAware ADS-B (EFHN)
Fri 10:41:22 PM 34.1011 -80.5618 31° Northeast 438 504 26,400 -545 Descending FlightAware ADS-B (EFHN)
Fri 10:42:07 PM 34.1811 -80.5036 31° Northeast 446 513 26,000 -539 Descending FlightAware ADS-B (EFHN)
Fri 10:42:51 PM 34.2582 -80.4475 31° Northeast 441 507 25,600 -553 Descending FlightAware ADS-B (EFHN)
Fri 10:43:23 PM 34.3135 -80.4072 31° Northeast 442 509 25,300 -592 Descending FlightAware ADS-B (EFHN)
Fri 10:44:02 PM 34.3823 -80.3568 31° Northeast 445 512 24,900 -431 Descending FlightAware ADS-B (EFHN)
Fri 10:46:24 PM 34.6352 -80.1707 31° Northeast 451 519 24,000 -286 Descending FlightAware ADS-B (EFHN)
Fri 10:47:11 PM 34.7078 -80.1192 31° Northeast 420 483 24,000  Level Washington Center
Fri 10:48:12 PM 34.8092 -80.0314 35° Northeast 452 520 24,000  Level Washington Center
Fri 10:49:10 PM 34.9069 -79.9278 41° Northeast 471 542 24,000 -200 Level Washington Center
Fri 10:50:12 PM 34.9981 -79.8261 42° Northeast 443 510 23,600 -2,066 Descending Washington Center
Fri 10:51:12 PM 35.0894 -79.7269 42° Northeast 427 491 19,800 -3,600 Descending Washington Center
Fri 10:52:12 PM 35.1653 -79.6419 42° Northeast 411 473 16,400 -3,687 Descending Washington Center
Fri 10:52:35 PM 35.2108 -79.5933 41° Northeast 391 450 14,700 -3,254 Descending Washington Center
Fri 10:53:11 PM 35.2642 -79.5553 30° Northeast 400 460 13,200 -2,712 Descending Washington Center
Fri 10:53:48 PM 35.3219 -79.5122 31° Northeast 354 407 11,400 -2,066 Descending Washington Center
Fri 10:54:12 PM 35.3389 -79.5006 29° Northeast 367 422 11,100 -393 Descending Washington Center
Fri 10:54:49 PM 35.3967 -79.4600 30° Northeast 282 325 11,000 -103 Descending Washington Center
Fri 10:55:10 PM 35.4200 -79.4458 26° Northeast 311 358 11,000 -295 Level Washington Center
Fri 10:55:50 PM 35.4650 -79.4122 31° Northeast 271 312 10,700 -590 Descending Washington Center
Fri 10:56:11 PM 35.4797 -79.4053 21° North 271 312 10,400 -968 Descending Washington Center
Fri 10:56:52 PM 35.5211 -79.3561 44° Northeast 273 314 9,700 -1,525 Descending Washington Center
Fri 10:57:10 PM 35.5342 -79.3339 54° Northeast 256 295 8,900 -2,557 Descending Washington Center
Fri 10:57:53 PM 35.5631 -79.2792 57° Northeast 260 299 7,100 -2,226 Descending Washington Center
Fri 10:58:12 PM 35.5717 -79.2667 50° Northeast 256 295 6,600 -1,966 Descending Washington Center
Fri 10:58:51 PM 35.6028 -79.2094 56° Northeast 251 289 5,200 -1,900 Descending Washington Center
Fri 10:59:12 PM 35.6181 -79.1869 50° Northeast 262 302 4,700 -1,200 Descending Washington Center
Fri 10:59:51 PM 35.6403 -79.1394 60° Northeast 237 273 4,000 -700 Descending Washington Center
Fri 11:00:12 PM 35.6511 -79.1272 43° Northeast 248 285 4,000 -194 Level Washington Center
Fri 11:00:53 PM 35.6753 -79.0822 57° Northeast 196 226 3,800 -203 Descending Washington Center
Fri 11:01:11 PM 35.6842 -79.0647 58° Northeast 216 249 3,800 -243 Level Washington Center
Fri 11:02:07 PM 35.7086 -79.0147 59° Northeast 181 208 3,500 -305 Descending Washington Center
Fri 11:02:10 PM 35.7108 -79.0122 42° Northeast 197 227 3,500  Level Washington Center
Fri 11:03:05 PM 35.7392 -78.9672 52° Northeast 176 203 3,500 -109 Level Washington Center
Fri 11:04:00 PM 35.7694 -78.9328 43° Northeast 162 186 3,300 -517 Descending Washington Center
Fri 11:05:01 PM 35.7975 -78.8981 45° Northeast 138 159 2,500 -694 Descending Washington Center
Fri 11:06:01 PM 35.8211 -78.8683 46° Northeast 100 115 1,900 -585 Descending Washington Center
Fri 11:07:04 PM 35.8406 -78.8436 46° Northeast 104 120 1,300 -581 Descending Washington Center
Fri 11:08:05 PM 35.8622 -78.8189 43° Northeast 114 131 700 -590 Descending Washington Center
Fri 11:10:00 PM 35.8667 -78.7833 51° Northeast  Level FlightAware Approximate
Fri 11:17:00 PM 35.8776 -78.7875 51° Northeast  Level Estimated
Fri 11:18:00 PM 35.8776 -78.7875 51° Northeast  Level Estimated
Fri 11:19:00 PM 35.8776 -78.7875 51° Northeast  Level Estimated

Login

Don't have an account? Register now (free) for customized features, flight alerts, and more!